createdAt,value
2023-06-30T00:03:05.226Z,72.30
2023-06-30T00:09:06.639Z,72.33
2023-06-30T00:15:07.853Z,72.46
2023-06-30T00:21:09.126Z,72.95
2023-06-30T00:27:10.312Z,72.92
2023-06-30T00:33:11.500Z,72.76
2023-06-30T00:39:12.713Z,72.33
2023-06-30T00:45:14.021Z,72.68
2023-06-30T00:51:15.447Z,73.17
2023-06-30T00:57:16.820Z,73.29
2023-06-30T01:03:18.146Z,73.19
2023-06-30T01:09:19.505Z,73.55
2023-06-30T01:15:20.882Z,73.54
2023-06-30T01:21:22.588Z,73.11
2023-06-30T01:27:23.829Z,73.88
2023-06-30T01:33:27.286Z,74.40
2023-06-30T01:39:28.544Z,74.28
2023-06-30T01:45:29.782Z,74.49
2023-06-30T01:51:31.102Z,74.84
2023-06-30T01:57:32.341Z,75.83
2023-06-30T02:03:33.658Z,76.74
2023-06-30T02:09:47.302Z,78.17
2023-06-30T02:15:49.604Z,78.76
2023-06-30T02:21:50.834Z,79.31
2023-06-30T02:27:53.560Z,80.42
2023-06-30T02:33:55.297Z,80.30
2023-06-30T02:39:56.491Z,80.80
2023-06-30T02:45:57.790Z,81.01
2023-06-30T02:51:59.058Z,80.96
2023-06-30T02:58:00.295Z,81.36
2023-06-30T03:04:01.695Z,81.53
2023-06-30T03:10:02.937Z,82.73
2023-06-30T03:16:04.121Z,82.14
2023-06-30T03:22:05.345Z,82.47
2023-06-30T03:28:06.586Z,82.22
2023-06-30T03:34:07.808Z,83.05
2023-06-30T03:40:09.180Z,82.93
2023-06-30T03:46:12.730Z,82.85
2023-06-30T03:52:13.962Z,82.93
2023-06-30T03:58:15.265Z,82.48
2023-06-30T04:04:16.689Z,82.12
2023-06-30T04:10:17.982Z,81.83
2023-06-30T04:16:19.251Z,81.73
2023-06-30T04:22:20.489Z,82.16
2023-06-30T04:28:21.688Z,82.52
2023-06-30T04:34:22.917Z,81.36
2023-06-30T04:40:24.149Z,81.39
2023-06-30T04:46:26.360Z,81.16
2023-06-30T04:52:27.919Z,80.38
2023-06-30T04:58:29.301Z,80.02
2023-06-30T05:04:30.550Z,80.69
2023-06-30T05:10:31.776Z,80.42
2023-06-30T05:16:34.656Z,80.24
2023-06-30T05:22:36.470Z,79.54
2023-06-30T05:28:37.694Z,79.43
2023-06-30T05:34:38.925Z,78.73
2023-06-30T05:40:40.135Z,77.83
2023-06-30T05:46:41.427Z,77.88
2023-06-30T05:52:42.743Z,76.97
2023-06-30T05:58:43.996Z,77.51
2023-06-30T06:04:45.411Z,77.75
2023-06-30T06:10:47.627Z,76.81
2023-06-30T06:16:48.955Z,75.74
2023-06-30T06:22:50.216Z,75.24
2023-06-30T06:28:51.427Z,74.82
2023-06-30T06:34:52.619Z,73.47
2023-06-30T06:40:53.875Z,72.92
2023-06-30T06:46:55.069Z,72.74
2023-06-30T06:52:56.259Z,72.63
2023-06-30T06:58:57.456Z,71.54
2023-06-30T07:04:59.090Z,69.79
2023-06-30T07:11:00.510Z,68.14
2023-06-30T07:17:01.697Z,67.68
2023-06-30T07:23:02.926Z,65.56
2023-06-30T07:29:04.115Z,65.96
2023-06-30T07:35:05.330Z,65.47
2023-06-30T07:41:06.624Z,63.72
2023-06-30T07:47:07.857Z,62.72
2023-06-30T07:53:09.728Z,60.39
2023-06-30T07:59:11.983Z,60.51
2023-06-30T08:05:13.616Z,60.75
2023-06-30T08:11:15.010Z,58.78
2023-06-30T08:17:31.334Z,59.01
2023-06-30T08:23:37.807Z,53.97
2023-06-30T08:29:39.065Z,52.18
2023-06-30T08:35:40.313Z,49.17
2023-06-30T08:41:43.806Z,52.08
2023-06-30T08:47:45.067Z,51.93
2023-06-30T08:53:46.277Z,51.21
2023-06-30T08:59:47.534Z,50.11
2023-06-30T09:05:48.871Z,49.69
2023-06-30T09:11:50.887Z,49.33
2023-06-30T09:17:52.107Z,47.58
2023-06-30T09:23:53.380Z,47.25
2023-06-30T09:29:55.066Z,47.43
2023-06-30T09:35:57.525Z,45.94
2023-06-30T09:41:58.750Z,44.90
2023-06-30T09:48:00.036Z,44.99
2023-06-30T09:54:02.072Z,42.94
2023-06-30T10:00:03.292Z,42.92
2023-06-30T10:06:04.506Z,42.32
2023-06-30T10:12:05.776Z,41.73
2023-06-30T10:18:07.057Z,42.12
2023-06-30T10:24:08.276Z,39.42
2023-06-30T10:30:09.485Z,39.63
2023-06-30T10:36:10.692Z,37.26
2023-06-30T10:42:11.905Z,37.74
2023-06-30T10:48:13.132Z,39.09
2023-06-30T10:54:14.346Z,35.93
2023-06-30T11:00:15.826Z,37.14
2023-06-30T11:06:17.086Z,37.93
2023-06-30T11:12:19.480Z,35.46
2023-06-30T11:18:20.950Z,32.90
2023-06-30T11:24:22.311Z,32.99
2023-06-30T11:30:23.744Z,32.41
2023-06-30T11:36:24.969Z,33.89
2023-06-30T11:42:26.191Z,32.99
2023-06-30T11:48:27.597Z,32.15
2023-06-30T11:54:28.842Z,33.25
2023-06-30T12:00:30.122Z,32.35
2023-06-30T12:06:31.515Z,31.77
2023-06-30T12:12:33.127Z,33.66
2023-06-30T12:18:37.410Z,34.52
2023-06-30T12:24:40.764Z,36.21
2023-06-30T12:30:41.953Z,35.93
2023-06-30T12:36:43.194Z,33.07
2023-06-30T12:42:44.399Z,31.30
2023-06-30T12:48:46.353Z,31.44
2023-06-30T12:54:47.634Z,28.62
2023-06-30T13:00:48.921Z,30.26
2023-06-30T13:06:50.188Z,30.77
2023-06-30T13:12:51.397Z,26.99
2023-06-30T13:18:52.611Z,28.25
2023-06-30T13:24:53.838Z,28.57
2023-06-30T13:30:55.093Z,29.55
2023-06-30T13:36:56.303Z,31.74
2023-06-30T13:42:57.509Z,33.46
2023-06-30T13:48:58.788Z,34.61
2023-06-30T13:55:00.011Z,32.64
2023-06-30T14:01:01.236Z,27.56
2023-06-30T14:07:05.362Z,24.86
2023-06-30T14:13:06.672Z,26.55
2023-06-30T14:19:08.224Z,26.90
2023-06-30T14:25:09.460Z,25.71
2023-06-30T14:31:10.704Z,28.41
2023-06-30T14:37:12.330Z,28.21
2023-06-30T14:43:13.627Z,30.77
2023-06-30T14:49:14.923Z,30.69
2023-06-30T14:55:16.250Z,30.02
2023-06-30T15:01:17.450Z,29.47
2023-06-30T15:07:19.679Z,27.90
2023-06-30T15:13:20.920Z,28.62
2023-06-30T15:19:22.181Z,26.47
2023-06-30T15:25:24.014Z,26.72
2023-06-30T15:31:25.257Z,27.56
2023-06-30T15:37:26.772Z,26.93
2023-06-30T15:43:28.239Z,26.51
2023-06-30T15:49:29.530Z,27.93
2023-06-30T15:55:30.772Z,29.37
2023-06-30T16:01:32.132Z,29.41
2023-06-30T16:07:33.472Z,28.10
2023-06-30T16:13:34.684Z,28.09
2023-06-30T16:19:35.912Z,26.87
2023-06-30T16:25:37.114Z,26.40
2023-06-30T16:31:38.315Z,26.83
2023-06-30T16:37:39.526Z,26.89
2023-06-30T16:43:40.817Z,27.76
2023-06-30T16:49:42.512Z,27.46
2023-06-30T16:55:43.897Z,26.99
2023-06-30T17:01:45.194Z,28.14
2023-06-30T17:07:46.447Z,27.33
2023-06-30T17:13:47.652Z,28.11
2023-06-30T17:19:48.910Z,27.56
2023-06-30T17:25:50.112Z,28.71
2023-06-30T17:31:51.597Z,29.48
2023-06-30T17:37:52.840Z,30.85
2023-06-30T17:43:54.062Z,32.00
2023-06-30T17:49:55.326Z,33.92
2023-06-30T17:55:56.601Z,35.40
2023-06-30T18:01:57.869Z,35.75
2023-06-30T18:07:59.116Z,36.30
2023-06-30T18:14:00.536Z,37.14
2023-06-30T18:20:01.739Z,37.02
2023-06-30T18:26:02.972Z,37.27
2023-06-30T18:32:04.196Z,37.20
2023-06-30T18:38:05.416Z,36.97
2023-06-30T18:44:06.822Z,37.26
2023-06-30T18:50:08.073Z,37.37
2023-06-30T18:56:09.292Z,38.80
2023-06-30T19:02:10.536Z,39.93
2023-06-30T19:08:11.799Z,40.79
2023-06-30T19:14:13.098Z,41.62
2023-06-30T19:20:14.302Z,42.98
2023-06-30T19:26:15.831Z,43.35
2023-06-30T19:32:17.065Z,44.67
2023-06-30T19:38:18.754Z,44.90
2023-06-30T19:44:20.340Z,45.26
2023-06-30T19:50:25.142Z,45.50
2023-06-30T19:56:26.381Z,46.12
2023-06-30T20:02:27.681Z,46.64
2023-06-30T20:08:28.956Z,46.35
2023-06-30T20:14:30.180Z,47.66
2023-06-30T20:20:31.380Z,48.39
2023-06-30T20:26:32.656Z,47.85
2023-06-30T20:32:33.932Z,48.26
2023-06-30T20:38:35.162Z,48.61
2023-06-30T20:44:36.434Z,48.61
2023-06-30T20:50:37.661Z,50.03
2023-06-30T20:56:38.936Z,49.73
2023-06-30T21:02:40.260Z,49.97
2023-06-30T21:08:41.549Z,50.32
2023-06-30T21:14:42.752Z,50.65
2023-06-30T21:20:44.383Z,51.75
2023-06-30T21:26:45.910Z,52.03
2023-06-30T21:32:47.238Z,52.02
2023-06-30T21:38:48.465Z,51.89
2023-06-30T21:44:49.895Z,52.26
2023-06-30T21:50:51.130Z,52.68
2023-06-30T21:56:52.340Z,52.83
2023-06-30T22:02:53.602Z,53.05
2023-06-30T22:09:00.327Z,53.47
2023-06-30T22:15:04.564Z,53.98
2023-06-30T22:21:05.981Z,53.68
2023-06-30T22:27:07.213Z,54.04
2023-06-30T22:33:08.738Z,54.43
2023-06-30T22:39:10.743Z,54.44
2023-06-30T22:45:12.054Z,54.56
2023-06-30T22:51:13.261Z,54.79
2023-06-30T22:57:14.572Z,54.59
2023-06-30T23:03:15.894Z,54.58
2023-06-30T23:09:17.140Z,54.29
2023-06-30T23:15:18.363Z,54.13
2023-06-30T23:21:19.575Z,53.93
2023-06-30T23:27:24.036Z,53.94
2023-06-30T23:33:26.101Z,53.88
2023-06-30T23:39:27.296Z,53.50
2023-06-30T23:45:28.538Z,53.38
2023-06-30T23:51:29.772Z,52.94
2023-06-30T23:57:31.028Z,52.69
